METAR Data
IDs: Format: Raw Decoded Include TAF

Data at: 1850 UTC 16 Oct 2021

KDTO 161753Z 02010KT 10SM CLR 22/M01 A3039 RMK AO2 SLP288 T02171006 10222 20050 58003
KDTO 161653Z 36011G17KT 10SM CLR 21/M01 A3041 RMK AO2 SLP294 T02111006
KDTO 161553Z 35006KT 10SM CLR 19/04 A3041 RMK AO2 SLP294 T01890039
KDTO 161453Z 35007KT 10SM CLR 16/06 A3040 RMK AO2 SLP292 T01610061 53018
KDTO 161353Z 33004KT 10SM CLR 10/07 A3039 RMK AO2 SLP287 T01000072
KDTO 161253Z 00000KT 10SM CLR 06/04 A3036 RMK AO2 SLP278 T00560044
KDTO 161153Z 00000KT 10SM CLR 06/04 A3035 RMK AO2 SLP275 T00560044 10106 20056 53011
KDTO 161053Z 32003KT 10SM CLR 06/05 A3033 RMK AO2 SLP266 T00610050
KDTO 160953Z AUTO 00000KT 10SM CLR 09/06 A3032 RMK AO2 SLP265 T00890061
KDTO 160853Z AUTO 32003KT 10SM CLR 08/06 A3031 RMK AO2 SLP261 T00830061 50008
KDTO 160753Z AUTO 32005KT 10SM CLR 09/06 A3032 RMK AO2 SLP262 T00940061
KDTO 160653Z AUTO 33005KT 10SM CLR 09/06 A3030 RMK AO2 SLP257 T00890061
KDTO 160553Z AUTO 34004KT 10SM CLR 10/07 A3029 RMK AO2 SLP253 T01000067 10194 20089 402390089 51018
KDTO 160453Z AUTO 33003KT 10SM CLR 09/07 A3028 RMK AO2 SLP250 T00890072
KDTO 160353Z AUTO 34003KT 10SM CLR 11/07 A3026 RMK AO2 SLP242 T01060072
KDTO 160253Z AUTO 34005KT 10SM CLR 13/07 A3024 RMK AO2 SLP234 T01280072 52028
KDTO 160153Z 34008KT 10SM CLR 16/07 A3021 RMK AO2 SLP224 T01560067
KDTO 160053Z 34007KT 10SM CLR 17/07 A3018 RMK AO2 SLP214 T01720067
KDTO 152353Z 35011KT 10SM CLR 19/07 A3015 RMK AO2 SLP203 T01940067 10239 20194 53023
KDTO 152253Z 35017G26KT 10SM CLR 22/07 A3013 RMK AO2 PK WND 35026/2241 SLP195 T02170072
KDTO 152153Z 35019G24KT 10SM CLR 23/08 A3010 RMK AO2 PK WND 34028/2101 SLP185 T02280083
KDTO 152053Z 35016G25KT 10SM CLR 24/10 A3008 RMK AO2 PK WND 34029/2015 SLP178 T02390100 53009
KDTO 151953Z 33017G27KT 10SM BKN034 23/11 A3006 RMK AO2 PK WND 34029/1938 SLP173 T02330111
KDTO 151857Z 33015G24KT 10SM BKN034 22/12 A3006 RMK AO2 T02220122
KDTO 151853Z 34017G24KT 10SM OVC034 22/12 A3006 RMK AO2 PK WND 33027/1842 SLP171 T02220122
KDTO 151833Z 33017G25KT 10SM OVC030 22/13 A3006 RMK AO2 T02220128
KDTO 151753Z 32015G22KT 10SM OVC025 22/14 A3005 RMK AO2 SLP169 T02170144 10222 20183 51032
KDTO 151718Z 33010G24KT 10SM OVC015 20/16 A3005 RMK AO2 T02000156
KDTO 151653Z 32013KT 10SM OVC012 20/17 A3004 RMK AO2 SLP165 T02000167
KDTO 151553Z 33017G27KT 10SM OVC012 19/17 A3000 RMK AO2 PK WND 32027/1548 PRESRR SLP154 T01890172
KDTO 151516Z AUTO 30009G18KT 10SM BKN010 BKN013 OVC018 21/19 A2997 RMK AO2 T02110194
KDTO 151502Z AUTO 31011G20KT 10SM FEW010 BKN015 BKN026 21/19 A2996 RMK AO2 T02110194
KDTO 151453Z 30012KT 10SM BKN013 BKN020 22/19 A2996 RMK AO2 SLP136 T02170194 53029 $
KDTO 151435Z 30010KT 10SM SCT011 BKN022 22/20 A2994 RMK AO2 T02220200 $
KDTO 151425Z 30008KT 10SM BKN011 OVC022 22/21 A2993 RMK AO2 T02220206 $
KDTO 151353Z 25004KT 10SM FEW013 OVC023 22/21 A2991 RMK AO2 SLP122 T02170206 $
KDTO 151253Z 00000KT 6SM BR OVC022 21/20 A2988 RMK AO2 SLP112 T02060200 $
KDTO 151215Z 00000KT 6SM BR BKN028 19/19 A2988 RMK AO2 T01940194 $
KDTO 151153Z 00000KT 8SM FEW030 20/19 A2987 RMK AO2 SLP106 T02000194 10217 20194 53010 $
KDTO 151053Z 17004KT 10SM CLR 21/20 A2985 RMK AO2 SLP099 T02060200 $
KDTO 150953Z AUTO 15005KT 10SM CLR 21/20 A2983 RMK AO2 SLP095 T02060200
KDTO 150853Z AUTO 18006KT 10SM CLR 21/20 A2984 RMK AO2 SLP095 T02060200 53001
KDTO 150753Z AUTO 17006KT 10SM CLR 21/21 A2983 RMK AO2 SLP094 T02110206
KDTO 150653Z AUTO 15006KT 10SM CLR 21/21 A2982 RMK AO2 SLP092 T02110206